sensor_id;sensor_type;location;lat;lon;timestamp;temperature;humidity
72772;SHT30;60894;42.544;1.516;2024-02-16T00:00:35;8.92;74.94
72772;SHT30;60894;42.544;1.516;2024-02-16T00:03:03;8.97;74.61
72772;SHT30;60894;42.544;1.516;2024-02-16T00:05:31;9.04;74.41
72772;SHT30;60894;42.544;1.516;2024-02-16T00:07:58;8.95;74.51
72772;SHT30;60894;42.544;1.516;2024-02-16T00:10:28;9.08;74.22
72772;SHT30;60894;42.544;1.516;2024-02-16T00:12:55;9.04;74.48
72772;SHT30;60894;42.544;1.516;2024-02-16T00:15:23;9.19;73.78
72772;SHT30;60894;42.544;1.516;2024-02-16T00:17:50;9.28;73.05
72772;SHT30;60894;42.544;1.516;2024-02-16T00:20:17;9.23;73.77
72772;SHT30;60894;42.544;1.516;2024-02-16T00:22:48;9.12;74.24
72772;SHT30;60894;42.544;1.516;2024-02-16T00:25:15;9.02;74.55
72772;SHT30;60894;42.544;1.516;2024-02-16T00:27:43;9.10;74.51
72772;SHT30;60894;42.544;1.516;2024-02-16T00:30:11;9.14;74.33
72772;SHT30;60894;42.544;1.516;2024-02-16T00:32:38;9.10;74.32
72772;SHT30;60894;42.544;1.516;2024-02-16T00:35:06;9.10;74.51
72772;SHT30;60894;42.544;1.516;2024-02-16T00:37:33;9.15;74.30
72772;SHT30;60894;42.544;1.516;2024-02-16T00:40:02;9.15;74.30
72772;SHT30;60894;42.544;1.516;2024-02-16T00:42:29;9.18;74.30
72772;SHT30;60894;42.544;1.516;2024-02-16T00:44:57;9.19;74.29
72772;SHT30;60894;42.544;1.516;2024-02-16T00:47:26;9.16;74.31
72772;SHT30;60894;42.544;1.516;2024-02-16T00:49:53;9.14;74.44
72772;SHT30;60894;42.544;1.516;2024-02-16T00:52:21;9.10;74.60
72772;SHT30;60894;42.544;1.516;2024-02-16T00:54:48;9.01;74.94
72772;SHT30;60894;42.544;1.516;2024-02-16T00:57:16;8.91;75.37
72772;SHT30;60894;42.544;1.516;2024-02-16T00:59:43;8.82;75.60
72772;SHT30;60894;42.544;1.516;2024-02-16T01:02:10;8.84;75.44
72772;SHT30;60894;42.544;1.516;2024-02-16T01:04:37;8.97;75.30
72772;SHT30;60894;42.544;1.516;2024-02-16T01:07:04;8.97;75.37
72772;SHT30;60894;42.544;1.516;2024-02-16T01:09:31;9.08;74.63
72772;SHT30;60894;42.544;1.516;2024-02-16T01:11:58;9.07;74.75
72772;SHT30;60894;42.544;1.516;2024-02-16T01:14:27;8.95;75.34
72772;SHT30;60894;42.544;1.516;2024-02-16T01:16:54;9.05;74.98
72772;SHT30;60894;42.544;1.516;2024-02-16T01:19:21;9.11;74.69
72772;SHT30;60894;42.544;1.516;2024-02-16T01:21:48;9.14;74.78
72772;SHT30;60894;42.544;1.516;2024-02-16T01:24:18;9.02;75.26
72772;SHT30;60894;42.544;1.516;2024-02-16T01:26:45;8.92;75.36
72772;SHT30;60894;42.544;1.516;2024-02-16T01:29:12;8.97;75.47
72772;SHT30;60894;42.544;1.516;2024-02-16T01:31:41;9.00;75.50
72772;SHT30;60894;42.544;1.516;2024-02-16T01:34:08;8.89;75.67
72772;SHT30;60894;42.544;1.516;2024-02-16T01:36:35;8.84;76.04
72772;SHT30;60894;42.544;1.516;2024-02-16T01:39:02;8.95;75.61
72772;SHT30;60894;42.544;1.516;2024-02-16T01:41:30;9.04;75.57
72772;SHT30;60894;42.544;1.516;2024-02-16T01:43:57;9.18;75.05
72772;SHT30;60894;42.544;1.516;2024-02-16T01:46:25;9.18;75.42
72772;SHT30;60894;42.544;1.516;2024-02-16T01:48:54;9.10;75.62
72772;SHT30;60894;42.544;1.516;2024-02-16T01:51:23;9.01;75.88
72772;SHT30;60894;42.544;1.516;2024-02-16T01:53:52;8.78;76.96
72772;SHT30;60894;42.544;1.516;2024-02-16T01:56:20;8.77;77.86
72772;SHT30;60894;42.544;1.516;2024-02-16T01:58:47;8.88;78.19
72772;SHT30;60894;42.544;1.516;2024-02-16T02:01:17;8.84;78.17
72772;SHT30;60894;42.544;1.516;2024-02-16T02:03:44;8.82;78.79
72772;SHT30;60894;42.544;1.516;2024-02-16T02:06:12;8.84;78.08
72772;SHT30;60894;42.544;1.516;2024-02-16T02:08:39;8.70;78.25
72772;SHT30;60894;42.544;1.516;2024-02-16T02:11:06;8.91;77.75
72772;SHT30;60894;42.544;1.516;2024-02-16T02:13:33;8.87;78.31
72772;SHT30;60894;42.544;1.516;2024-02-16T02:16:02;8.87;78.65
72772;SHT30;60894;42.544;1.516;2024-02-16T02:18:31;8.75;78.63
72772;SHT30;60894;42.544;1.516;2024-02-16T02:20:58;8.70;79.51
72772;SHT30;60894;42.544;1.516;2024-02-16T02:23:26;8.56;79.74
72772;SHT30;60894;42.544;1.516;2024-02-16T02:25:54;8.54;80.39
72772;SHT30;60894;42.544;1.516;2024-02-16T02:28:21;8.54;81.10
72772;SHT30;60894;42.544;1.516;2024-02-16T02:30:50;8.53;81.16
72772;SHT30;60894;42.544;1.516;2024-02-16T02:33:19;8.46;81.20
72772;SHT30;60894;42.544;1.516;2024-02-16T02:35:46;8.40;81.75
72772;SHT30;60894;42.544;1.516;2024-02-16T02:38:13;8.37;83.00
72772;SHT30;60894;42.544;1.516;2024-02-16T02:40:41;8.50;81.84
72772;SHT30;60894;42.544;1.516;2024-02-16T02:43:08;8.53;82.02
72772;SHT30;60894;42.544;1.516;2024-02-16T02:45:35;8.56;82.48
72772;SHT30;60894;42.544;1.516;2024-02-16T02:48:03;8.61;81.58
72772;SHT30;60894;42.544;1.516;2024-02-16T02:50:30;8.51;83.17
72772;SHT30;60894;42.544;1.516;2024-02-16T02:52:57;8.37;83.85
72772;SHT30;60894;42.544;1.516;2024-02-16T02:55:24;8.36;84.09
72772;SHT30;60894;42.544;1.516;2024-02-16T02:57:53;8.47;83.30
72772;SHT30;60894;42.544;1.516;2024-02-16T03:00:21;8.47;83.18
72772;SHT30;60894;42.544;1.516;2024-02-16T03:02:48;8.43;83.61
72772;SHT30;60894;42.544;1.516;2024-02-16T03:05:15;8.32;83.51
72772;SHT30;60894;42.544;1.516;2024-02-16T03:07:42;8.26;84.23
72772;SHT30;60894;42.544;1.516;2024-02-16T03:10:10;8.16;84.45
72772;SHT30;60894;42.544;1.516;2024-02-16T03:12:37;8.19;84.77
72772;SHT30;60894;42.544;1.516;2024-02-16T03:15:06;8.10;85.01
72772;SHT30;60894;42.544;1.516;2024-02-16T03:17:34;8.06;85.53
72772;SHT30;60894;42.544;1.516;2024-02-16T03:20:01;7.91;86.05
72772;SHT30;60894;42.544;1.516;2024-02-16T03:22:29;7.98;85.82
72772;SHT30;60894;42.544;1.516;2024-02-16T03:24:56;8.00;85.99
72772;SHT30;60894;42.544;1.516;2024-02-16T03:27:23;8.00;85.67
72772;SHT30;60894;42.544;1.516;2024-02-16T03:29:50;8.03;85.31
72772;SHT30;60894;42.544;1.516;2024-02-16T03:32:20;8.16;84.70
72772;SHT30;60894;42.544;1.516;2024-02-16T03:34:47;8.16;84.66
72772;SHT30;60894;42.544;1.516;2024-02-16T03:37:14;8.19;84.75
72772;SHT30;60894;42.544;1.516;2024-02-16T03:39:41;8.22;84.20
72772;SHT30;60894;42.544;1.516;2024-02-16T03:42:09;8.16;83.76
72772;SHT30;60894;42.544;1.516;2024-02-16T03:44:36;8.26;83.90
72772;SHT30;60894;42.544;1.516;2024-02-16T03:47:03;8.19;84.34
72772;SHT30;60894;42.544;1.516;2024-02-16T03:49:32;8.02;84.97
72772;SHT30;60894;42.544;1.516;2024-02-16T03:51:59;7.98;85.17
72772;SHT30;60894;42.544;1.516;2024-02-16T03:54:26;8.02;85.39
72772;SHT30;60894;42.544;1.516;2024-02-16T03:56:53;8.10;85.20
72772;SHT30;60894;42.544;1.516;2024-02-16T03:59:20;8.07;85.18
72772;SHT30;60894;42.544;1.516;2024-02-16T04:01:49;8.06;84.79
72772;SHT30;60894;42.544;1.516;2024-02-16T04:04:17;8.03;84.86
72772;SHT30;60894;42.544;1.516;2024-02-16T04:06:46;8.05;84.82
72772;SHT30;60894;42.544;1.516;2024-02-16T04:09:13;8.00;85.23
72772;SHT30;60894;42.544;1.516;2024-02-16T04:11:40;8.13;84.61
72772;SHT30;60894;42.544;1.516;2024-02-16T04:14:07;8.09;84.35
72772;SHT30;60894;42.544;1.516;2024-02-16T04:16:34;8.19;84.35
72772;SHT30;60894;42.544;1.516;2024-02-16T04:19:01;8.06;84.21
72772;SHT30;60894;42.544;1.516;2024-02-16T04:21:28;7.95;85.60
72772;SHT30;60894;42.544;1.516;2024-02-16T04:23:57;7.89;85.15
72772;SHT30;60894;42.544;1.516;2024-02-16T04:26:24;7.98;84.69
72772;SHT30;60894;42.544;1.516;2024-02-16T04:28:51;7.99;85.00
72772;SHT30;60894;42.544;1.516;2024-02-16T04:31:18;7.92;85.27
72772;SHT30;60894;42.544;1.516;2024-02-16T04:33:45;7.95;85.46
72772;SHT30;60894;42.544;1.516;2024-02-16T04:36:12;7.98;85.79
72772;SHT30;60894;42.544;1.516;2024-02-16T04:38:41;7.92;85.63
72772;SHT30;60894;42.544;1.516;2024-02-16T04:41:09;7.95;85.32
72772;SHT30;60894;42.544;1.516;2024-02-16T04:43:36;7.98;85.20
72772;SHT30;60894;42.544;1.516;2024-02-16T04:46:03;7.93;85.63
72772;SHT30;60894;42.544;1.516;2024-02-16T04:48:30;8.03;85.26
72772;SHT30;60894;42.544;1.516;2024-02-16T04:50:59;8.06;84.84
72772;SHT30;60894;42.544;1.516;2024-02-16T04:53:27;7.88;85.77
72772;SHT30;60894;42.544;1.516;2024-02-16T04:55:54;7.92;85.70
72772;SHT30;60894;42.544;1.516;2024-02-16T04:58:23;7.86;85.46
72772;SHT30;60894;42.544;1.516;2024-02-16T05:00:50;7.79;86.10
72772;SHT30;60894;42.544;1.516;2024-02-16T05:03:18;7.75;85.99
72772;SHT30;60894;42.544;1.516;2024-02-16T05:05:45;7.83;85.94
72772;SHT30;60894;42.544;1.516;2024-02-16T05:08:12;7.91;86.19
72772;SHT30;60894;42.544;1.516;2024-02-16T05:10:39;7.83;85.94
72772;SHT30;60894;42.544;1.516;2024-02-16T05:13:06;7.88;86.05
72772;SHT30;60894;42.544;1.516;2024-02-16T05:15:34;7.88;85.88
72772;SHT30;60894;42.544;1.516;2024-02-16T05:18:01;7.86;85.59
72772;SHT30;60894;42.544;1.516;2024-02-16T05:20:29;7.89;85.62
72772;SHT30;60894;42.544;1.516;2024-02-16T05:22:56;8.09;84.15
72772;SHT30;60894;42.544;1.516;2024-02-16T05:25:23;7.91;84.79
72772;SHT30;60894;42.544;1.516;2024-02-16T05:27:50;7.91;84.99
72772;SHT30;60894;42.544;1.516;2024-02-16T05:30:17;7.95;85.05
72772;SHT30;60894;42.544;1.516;2024-02-16T05:32:45;7.88;84.94
72772;SHT30;60894;42.544;1.516;2024-02-16T05:35:13;7.77;85.93
72772;SHT30;60894;42.544;1.516;2024-02-16T05:37:43;7.69;86.30
72772;SHT30;60894;42.544;1.516;2024-02-16T05:40:11;7.75;86.23
72772;SHT30;60894;42.544;1.516;2024-02-16T05:42:48;7.68;86.54
72772;SHT30;60894;42.544;1.516;2024-02-16T05:45:15;7.64;87.23
72772;SHT30;60894;42.544;1.516;2024-02-16T05:47:42;7.55;87.64
72772;SHT30;60894;42.544;1.516;2024-02-16T05:50:12;7.64;87.47
72772;SHT30;60894;42.544;1.516;2024-02-16T05:52:39;7.69;87.42
72772;SHT30;60894;42.544;1.516;2024-02-16T05:55:08;7.78;86.81
72772;SHT30;60894;42.544;1.516;2024-02-16T05:57:36;7.78;86.86
72772;SHT30;60894;42.544;1.516;2024-02-16T06:00:04;7.71;87.01
72772;SHT30;60894;42.544;1.516;2024-02-16T06:02:31;7.72;87.14
72772;SHT30;60894;42.544;1.516;2024-02-16T06:04:58;7.69;87.01
72772;SHT30;60894;42.544;1.516;2024-02-16T06:07:27;7.77;86.98
72772;SHT30;60894;42.544;1.516;2024-02-16T06:09:54;7.91;86.96
72772;SHT30;60894;42.544;1.516;2024-02-16T06:12:22;7.86;86.68
72772;SHT30;60894;42.544;1.516;2024-02-16T06:14:49;7.93;86.46
72772;SHT30;60894;42.544;1.516;2024-02-16T06:17:16;8.02;86.21
72772;SHT30;60894;42.544;1.516;2024-02-16T06:19:43;7.89;86.24
72772;SHT30;60894;42.544;1.516;2024-02-16T06:22:11;7.92;86.03
72772;SHT30;60894;42.544;1.516;2024-02-16T06:24:39;7.85;86.18
72772;SHT30;60894;42.544;1.516;2024-02-16T06:27:06;7.99;85.20
72772;SHT30;60894;42.544;1.516;2024-02-16T06:29:34;8.13;85.35
72772;SHT30;60894;42.544;1.516;2024-02-16T06:32:02;8.02;85.51
72772;SHT30;60894;42.544;1.516;2024-02-16T06:34:29;8.05;85.11
72772;SHT30;60894;42.544;1.516;2024-02-16T06:36:56;7.99;85.99
72772;SHT30;60894;42.544;1.516;2024-02-16T06:39:23;8.05;84.74
72772;SHT30;60894;42.544;1.516;2024-02-16T06:41:51;7.98;85.82
72772;SHT30;60894;42.544;1.516;2024-02-16T06:44:19;8.03;85.13
72772;SHT30;60894;42.544;1.516;2024-02-16T06:46:46;8.12;85.25
72772;SHT30;60894;42.544;1.516;2024-02-16T06:49:13;8.05;86.18
72772;SHT30;60894;42.544;1.516;2024-02-16T06:51:41;7.98;86.03
72772;SHT30;60894;42.544;1.516;2024-02-16T06:54:08;7.93;86.14
72772;SHT30;60894;42.544;1.516;2024-02-16T06:56:35;8.00;86.26
72772;SHT30;60894;42.544;1.516;2024-02-16T06:59:04;8.03;85.72
72772;SHT30;60894;42.544;1.516;2024-02-16T07:01:31;8.00;86.24
72772;SHT30;60894;42.544;1.516;2024-02-16T07:03:58;8.07;86.37
72772;SHT30;60894;42.544;1.516;2024-02-16T07:06:27;8.12;85.84
72772;SHT30;60894;42.544;1.516;2024-02-16T07:08:54;8.14;85.78
72772;SHT30;60894;42.544;1.516;2024-02-16T07:11:21;8.09;85.99
72772;SHT30;60894;42.544;1.516;2024-02-16T07:13:49;8.12;86.05
72772;SHT30;60894;42.544;1.516;2024-02-16T07:16:17;8.23;85.05
72772;SHT30;60894;42.544;1.516;2024-02-16T07:18:45;8.32;84.67
72772;SHT30;60894;42.544;1.516;2024-02-16T07:21:12;8.30;84.74
72772;SHT30;60894;42.544;1.516;2024-02-16T07:23:39;8.32;84.86
72772;SHT30;60894;42.544;1.516;2024-02-16T07:26:06;8.36;85.07
72772;SHT30;60894;42.544;1.516;2024-02-16T07:28:34;8.37;85.11
72772;SHT30;60894;42.544;1.516;2024-02-16T07:31:01;8.33;85.32
72772;SHT30;60894;42.544;1.516;2024-02-16T07:33:30;8.56;83.75
72772;SHT30;60894;42.544;1.516;2024-02-16T07:35:57;8.50;84.47
72772;SHT30;60894;42.544;1.516;2024-02-16T07:38:24;8.47;83.95
72772;SHT30;60894;42.544;1.516;2024-02-16T07:40:53;8.39;84.19
72772;SHT30;60894;42.544;1.516;2024-02-16T07:43:20;8.30;84.42
72772;SHT30;60894;42.544;1.516;2024-02-16T07:45:49;8.28;85.62
72772;SHT30;60894;42.544;1.516;2024-02-16T07:48:19;8.37;84.81
72772;SHT30;60894;42.544;1.516;2024-02-16T07:50:48;8.39;85.41
72772;SHT30;60894;42.544;1.516;2024-02-16T07:53:16;8.50;84.23
72772;SHT30;60894;42.544;1.516;2024-02-16T07:55:43;8.53;84.64
72772;SHT30;60894;42.544;1.516;2024-02-16T07:58:10;8.56;84.65
72772;SHT30;60894;42.544;1.516;2024-02-16T08:00:38;8.57;84.30
72772;SHT30;60894;42.544;1.516;2024-02-16T08:03:06;8.61;83.55
72772;SHT30;60894;42.544;1.516;2024-02-16T08:05:33;8.63;84.41
72772;SHT30;60894;42.544;1.516;2024-02-16T08:08:02;8.60;84.02
72772;SHT30;60894;42.544;1.516;2024-02-16T08:10:29;8.65;83.83
72772;SHT30;60894;42.544;1.516;2024-02-16T08:12:57;8.71;83.48
72772;SHT30;60894;42.544;1.516;2024-02-16T08:15:25;8.77;83.50
72772;SHT30;60894;42.544;1.516;2024-02-16T08:17:53;8.67;84.34
72772;SHT30;60894;42.544;1.516;2024-02-16T08:20:20;8.67;83.75
72772;SHT30;60894;42.544;1.516;2024-02-16T08:22:48;8.63;82.69
72772;SHT30;60894;42.544;1.516;2024-02-16T08:25:16;8.77;83.47
72772;SHT30;60894;42.544;1.516;2024-02-16T08:27:43;8.80;82.81
72772;SHT30;60894;42.544;1.516;2024-02-16T08:30:11;8.81;80.91
72772;SHT30;60894;42.544;1.516;2024-02-16T08:32:39;8.88;80.18
72772;SHT30;60894;42.544;1.516;2024-02-16T08:35:07;8.88;82.08
72772;SHT30;60894;42.544;1.516;2024-02-16T08:37:34;8.92;81.41
72772;SHT30;60894;42.544;1.516;2024-02-16T08:40:02;8.97;80.25
72772;SHT30;60894;42.544;1.516;2024-02-16T08:42:31;8.97;81.27
72772;SHT30;60894;42.544;1.516;2024-02-16T08:44:58;9.22;72.51
72772;SHT30;60894;42.544;1.516;2024-02-16T08:47:26;9.11;75.10
72772;SHT30;60894;42.544;1.516;2024-02-16T08:49:53;9.39;65.02
72772;SHT30;60894;42.544;1.516;2024-02-16T08:52:20;9.63;63.67
72772;SHT30;60894;42.544;1.516;2024-02-16T08:54:48;9.66;64.44
72772;SHT30;60894;42.544;1.516;2024-02-16T08:57:15;9.67;63.49
72772;SHT30;60894;42.544;1.516;2024-02-16T08:59:46;9.79;65.59
72772;SHT30;60894;42.544;1.516;2024-02-16T09:02:13;9.79;64.82
72772;SHT30;60894;42.544;1.516;2024-02-16T09:04:40;9.90;61.99
72772;SHT30;60894;42.544;1.516;2024-02-16T09:07:07;9.95;60.69
72772;SHT30;60894;42.544;1.516;2024-02-16T09:09:34;9.98;63.02
72772;SHT30;60894;42.544;1.516;2024-02-16T09:12:02;10.11;58.95
72772;SHT30;60894;42.544;1.516;2024-02-16T09:14:29;10.07;57.54
72772;SHT30;60894;42.544;1.516;2024-02-16T09:16:59;10.20;56.69
72772;SHT30;60894;42.544;1.516;2024-02-16T09:19:26;10.25;56.67
72772;SHT30;60894;42.544;1.516;2024-02-16T09:21:54;10.20;57.60
72772;SHT30;60894;42.544;1.516;2024-02-16T09:24:23;10.35;56.71
72772;SHT30;60894;42.544;1.516;2024-02-16T09:26:54;10.32;55.90
72772;SHT30;60894;42.544;1.516;2024-02-16T09:29:22;10.35;56.79
72772;SHT30;60894;42.544;1.516;2024-02-16T09:31:49;10.49;56.29
72772;SHT30;60894;42.544;1.516;2024-02-16T09:34:18;10.46;54.68
72772;SHT30;60894;42.544;1.516;2024-02-16T09:36:46;10.51;55.74
72772;SHT30;60894;42.544;1.516;2024-02-16T09:39:13;10.54;57.14
72772;SHT30;60894;42.544;1.516;2024-02-16T09:41:42;10.55;56.70
72772;SHT30;60894;42.544;1.516;2024-02-16T09:44:09;10.59;56.61
72772;SHT30;60894;42.544;1.516;2024-02-16T09:46:37;10.66;58.56
72772;SHT30;60894;42.544;1.516;2024-02-16T09:49:04;10.76;59.69
72772;SHT30;60894;42.544;1.516;2024-02-16T09:51:36;10.77;60.35
72772;SHT30;60894;42.544;1.516;2024-02-16T09:54:08;10.83;60.03
72772;SHT30;60894;42.544;1.516;2024-02-16T09:56:45;10.82;61.95
72772;SHT30;60894;42.544;1.516;2024-02-16T09:59:12;10.82;61.15
72772;SHT30;60894;42.544;1.516;2024-02-16T10:01:40;10.91;61.85
72772;SHT30;60894;42.544;1.516;2024-02-16T10:04:07;10.83;62.78
72772;SHT30;60894;42.544;1.516;2024-02-16T10:06:47;10.86;64.97
72772;SHT30;60894;42.544;1.516;2024-02-16T10:09:24;10.72;63.49
72772;SHT30;60894;42.544;1.516;2024-02-16T10:11:51;10.68;63.13
72772;SHT30;60894;42.544;1.516;2024-02-16T10:14:19;10.68;63.01
72772;SHT30;60894;42.544;1.516;2024-02-16T10:16:47;10.75;62.44
72772;SHT30;60894;42.544;1.516;2024-02-16T10:19:17;10.77;61.58
72772;SHT30;60894;42.544;1.516;2024-02-16T10:21:46;10.85;61.54
72772;SHT30;60894;42.544;1.516;2024-02-16T10:24:13;10.88;61.11
72772;SHT30;60894;42.544;1.516;2024-02-16T10:26:41;10.83;59.15
72772;SHT30;60894;42.544;1.516;2024-02-16T10:29:09;10.95;58.38
72772;SHT30;60894;42.544;1.516;2024-02-16T10:31:37;10.96;58.43
72772;SHT30;60894;42.544;1.516;2024-02-16T10:34:05;10.95;56.55
72772;SHT30;60894;42.544;1.516;2024-02-16T10:36:36;10.92;58.45
72772;SHT30;60894;42.544;1.516;2024-02-16T10:39:06;11.02;58.70
72772;SHT30;60894;42.544;1.516;2024-02-16T10:41:35;11.04;57.15
72772;SHT30;60894;42.544;1.516;2024-02-16T10:44:03;11.00;57.63
72772;SHT30;60894;42.544;1.516;2024-02-16T10:46:31;11.02;56.76
72772;SHT30;60894;42.544;1.516;2024-02-16T10:48:59;11.06;56.14
72772;SHT30;60894;42.544;1.516;2024-02-16T10:51:31;11.13;55.18
72772;SHT30;60894;42.544;1.516;2024-02-16T10:54:01;10.95;55.84
72772;SHT30;60894;42.544;1.516;2024-02-16T10:56:35;10.88;54.89
72772;SHT30;60894;42.544;1.516;2024-02-16T10:59:03;10.89;52.57
72772;SHT30;60894;42.544;1.516;2024-02-16T11:01:37;10.79;52.75
72772;SHT30;60894;42.544;1.516;2024-02-16T11:04:05;10.80;53.50
72772;SHT30;60894;42.544;1.516;2024-02-16T11:06:47;10.86;53.39
72772;SHT30;60894;42.544;1.516;2024-02-16T11:09:26;10.91;53.02
72772;SHT30;60894;42.544;1.516;2024-02-16T11:11:58;10.89;52.02
72772;SHT30;60894;42.544;1.516;2024-02-16T11:14:34;10.86;52.73
72772;SHT30;60894;42.544;1.516;2024-02-16T11:17:01;10.83;52.86
72772;SHT30;60894;42.544;1.516;2024-02-16T11:19:29;10.99;52.00
72772;SHT30;60894;42.544;1.516;2024-02-16T11:21:57;10.89;52.23
72772;SHT30;60894;42.544;1.516;2024-02-16T11:24:31;10.83;51.94
72772;SHT30;60894;42.544;1.516;2024-02-16T11:27:02;10.88;52.24
72772;SHT30;60894;42.544;1.516;2024-02-16T11:29:32;10.55;51.99
72772;SHT30;60894;42.544;1.516;2024-02-16T11:32:00;10.61;52.10
72772;SHT30;60894;42.544;1.516;2024-02-16T11:34:28;10.69;53.03
72772;SHT30;60894;42.544;1.516;2024-02-16T11:36:56;10.82;51.94
72772;SHT30;60894;42.544;1.516;2024-02-16T11:39:24;10.52;51.91
72772;SHT30;60894;42.544;1.516;2024-02-16T11:42:03;10.58;52.00
72772;SHT30;60894;42.544;1.516;2024-02-16T11:44:32;10.66;52.13
72772;SHT30;60894;42.544;1.516;2024-02-16T11:46:59;10.51;52.18
72772;SHT30;60894;42.544;1.516;2024-02-16T11:49:28;10.42;51.82
72772;SHT30;60894;42.544;1.516;2024-02-16T11:51:55;10.52;52.08
72772;SHT30;60894;42.544;1.516;2024-02-16T11:54:22;10.48;52.15
72772;SHT30;60894;42.544;1.516;2024-02-16T11:56:50;10.46;52.42
72772;SHT30;60894;42.544;1.516;2024-02-16T11:59:19;10.51;52.24
72772;SHT30;60894;42.544;1.516;2024-02-16T12:01:54;10.52;52.55
72772;SHT30;60894;42.544;1.516;2024-02-16T12:04:22;10.37;51.78
72772;SHT30;60894;42.544;1.516;2024-02-16T12:06:55;10.51;51.92
72772;SHT30;60894;42.544;1.516;2024-02-16T12:09:23;10.46;52.07
72772;SHT30;60894;42.544;1.516;2024-02-16T12:11:52;10.51;52.32
72772;SHT30;60894;42.544;1.516;2024-02-16T12:14:22;10.41;52.01
72772;SHT30;60894;42.544;1.516;2024-02-16T12:16:49;10.41;52.40
72772;SHT30;60894;42.544;1.516;2024-02-16T12:19:18;10.52;52.17
72772;SHT30;60894;42.544;1.516;2024-02-16T12:21:48;10.52;51.99
72772;SHT30;60894;42.544;1.516;2024-02-16T12:24:15;10.52;51.33
72772;SHT30;60894;42.544;1.516;2024-02-16T12:26:43;10.59;51.22
72772;SHT30;60894;42.544;1.516;2024-02-16T12:29:10;10.61;51.39
72772;SHT30;60894;42.544;1.516;2024-02-16T12:31:40;10.59;51.31
72772;SHT30;60894;42.544;1.516;2024-02-16T12:34:08;10.62;51.26
72772;SHT30;60894;42.544;1.516;2024-02-16T12:36:35;10.59;50.70
72772;SHT30;60894;42.544;1.516;2024-02-16T12:39:03;10.51;51.38
72772;SHT30;60894;42.544;1.516;2024-02-16T12:41:31;10.44;51.32
72772;SHT30;60894;42.544;1.516;2024-02-16T12:43:59;10.42;51.75
72772;SHT30;60894;42.544;1.516;2024-02-16T12:46:26;10.56;51.59
72772;SHT30;60894;42.544;1.516;2024-02-16T12:48:55;10.48;51.60
72772;SHT30;60894;42.544;1.516;2024-02-16T12:51:22;10.58;51.08
72772;SHT30;60894;42.544;1.516;2024-02-16T12:53:50;10.51;51.44
72772;SHT30;60894;42.544;1.516;2024-02-16T12:56:18;10.55;51.57
72772;SHT30;60894;42.544;1.516;2024-02-16T12:58:47;10.56;51.39
72772;SHT30;60894;42.544;1.516;2024-02-16T13:01:14;10.56;51.63
72772;SHT30;60894;42.544;1.516;2024-02-16T13:03:44;10.49;50.90
72772;SHT30;60894;42.544;1.516;2024-02-16T13:06:12;10.48;50.89
72772;SHT30;60894;42.544;1.516;2024-02-16T13:08:40;10.59;51.30
72772;SHT30;60894;42.544;1.516;2024-02-16T13:11:21;10.65;51.07
72772;SHT30;60894;42.544;1.516;2024-02-16T13:13:48;10.56;51.58
72772;SHT30;60894;42.544;1.516;2024-02-16T13:16:17;10.56;52.03
72772;SHT30;60894;42.544;1.516;2024-02-16T13:18:44;10.59;51.32
72772;SHT30;60894;42.544;1.516;2024-02-16T13:21:13;10.66;50.82
72772;SHT30;60894;42.544;1.516;2024-02-16T13:23:41;10.72;51.38
72772;SHT30;60894;42.544;1.516;2024-02-16T13:26:08;10.66;51.03
72772;SHT30;60894;42.544;1.516;2024-02-16T13:28:35;10.55;50.67
72772;SHT30;60894;42.544;1.516;2024-02-16T13:31:03;10.66;51.08
72772;SHT30;60894;42.544;1.516;2024-02-16T13:33:30;10.65;51.07
72772;SHT30;60894;42.544;1.516;2024-02-16T13:35:57;10.63;51.13
72772;SHT30;60894;42.544;1.516;2024-02-16T13:38:26;10.71;51.17
72772;SHT30;60894;42.544;1.516;2024-02-16T13:40:53;10.41;50.85
72772;SHT30;60894;42.544;1.516;2024-02-16T13:43:21;10.18;51.47
72772;SHT30;60894;42.544;1.516;2024-02-16T13:45:49;10.21;51.76
72772;SHT30;60894;42.544;1.516;2024-02-16T13:48:17;10.25;50.95
72772;SHT30;60894;42.544;1.516;2024-02-16T13:50:46;10.27;51.13
72772;SHT30;60894;42.544;1.516;2024-02-16T13:53:13;10.34;51.33
72772;SHT30;60894;42.544;1.516;2024-02-16T13:55:43;10.31;51.40
72772;SHT30;60894;42.544;1.516;2024-02-16T13:58:10;10.40;50.87
72772;SHT30;60894;42.544;1.516;2024-02-16T14:00:38;10.48;51.45
72772;SHT30;60894;42.544;1.516;2024-02-16T14:03:06;10.46;51.25
72772;SHT30;60894;42.544;1.516;2024-02-16T14:05:35;10.38;50.54
72772;SHT30;60894;42.544;1.516;2024-02-16T14:08:03;10.24;51.04
72772;SHT30;60894;42.544;1.516;2024-02-16T14:10:31;10.45;50.82
72772;SHT30;60894;42.544;1.516;2024-02-16T14:13:00;10.46;50.94
72772;SHT30;60894;42.544;1.516;2024-02-16T14:15:27;10.51;51.87
72772;SHT30;60894;42.544;1.516;2024-02-16T14:17:54;10.58;51.12
72772;SHT30;60894;42.544;1.516;2024-02-16T14:20:21;10.49;50.50
72772;SHT30;60894;42.544;1.516;2024-02-16T14:22:49;10.38;51.24
72772;SHT30;60894;42.544;1.516;2024-02-16T14:25:16;10.41;50.93
72772;SHT30;60894;42.544;1.516;2024-02-16T14:27:44;10.28;51.46
72772;SHT30;60894;42.544;1.516;2024-02-16T14:30:13;10.31;52.13
72772;SHT30;60894;42.544;1.516;2024-02-16T14:32:40;10.42;51.15
72772;SHT30;60894;42.544;1.516;2024-02-16T14:35:08;10.35;52.60
72772;SHT30;60894;42.544;1.516;2024-02-16T14:37:36;10.42;51.35
72772;SHT30;60894;42.544;1.516;2024-02-16T14:40:05;10.10;52.66
72772;SHT30;60894;42.544;1.516;2024-02-16T14:42:39;10.07;52.60
72772;SHT30;60894;42.544;1.516;2024-02-16T14:45:14;9.97;51.59
72772;SHT30;60894;42.544;1.516;2024-02-16T14:47:47;10.05;52.98
72772;SHT30;60894;42.544;1.516;2024-02-16T14:50:14;10.13;53.71
72772;SHT30;60894;42.544;1.516;2024-02-16T14:52:41;10.17;52.66
72772;SHT30;60894;42.544;1.516;2024-02-16T14:55:09;10.10;54.60
72772;SHT30;60894;42.544;1.516;2024-02-16T14:57:37;10.15;55.48
72772;SHT30;60894;42.544;1.516;2024-02-16T15:00:07;9.89;53.85
72772;SHT30;60894;42.544;1.516;2024-02-16T15:02:35;9.70;54.43
72772;SHT30;60894;42.544;1.516;2024-02-16T15:05:03;9.80;54.22
72772;SHT30;60894;42.544;1.516;2024-02-16T15:07:30;9.72;54.60
72772;SHT30;60894;42.544;1.516;2024-02-16T15:09:58;9.89;54.02
72772;SHT30;60894;42.544;1.516;2024-02-16T15:12:25;9.77;53.73
72772;SHT30;60894;42.544;1.516;2024-02-16T15:14:53;9.73;53.07
72772;SHT30;60894;42.544;1.516;2024-02-16T15:17:20;9.69;53.59
72772;SHT30;60894;42.544;1.516;2024-02-16T15:19:49;9.60;53.72
72772;SHT30;60894;42.544;1.516;2024-02-16T15:22:16;9.66;53.79
72772;SHT30;60894;42.544;1.516;2024-02-16T15:24:43;9.53;53.28
72772;SHT30;60894;42.544;1.516;2024-02-16T15:27:11;9.47;53.62
72772;SHT30;60894;42.544;1.516;2024-02-16T15:29:38;9.49;52.51
72772;SHT30;60894;42.544;1.516;2024-02-16T15:32:06;9.49;53.08
72772;SHT30;60894;42.544;1.516;2024-02-16T15:34:34;9.57;52.93
72772;SHT30;60894;42.544;1.516;2024-02-16T15:37:03;9.42;53.66
72772;SHT30;60894;42.544;1.516;2024-02-16T15:39:31;9.36;53.30
72772;SHT30;60894;42.544;1.516;2024-02-16T15:41:58;9.43;53.90
72772;SHT30;60894;42.544;1.516;2024-02-16T15:44:26;9.50;53.88